sensor_id;sensor_type;location;lat;lon;timestamp;pressure;altitude;pressure_sealevel;temperature;humidity
68508;BME280;55510;49.560;19.090;2023-03-20T11:43:18;96453.00;;;18.18;35.44
68508;BME280;55510;49.560;19.090;2023-03-20T11:46:20;96448.13;;;18.39;35.73
68508;BME280;55510;49.560;19.090;2023-03-20T11:49:24;96447.91;;;19.21;35.03
68508;BME280;55510;49.560;19.090;2023-03-20T11:52:28;96443.28;;;19.08;34.13
68508;BME280;55510;49.560;19.090;2023-03-20T11:55:32;96445.91;;;19.13;35.09
68508;BME280;55510;49.560;19.090;2023-03-20T11:58:37;96441.22;;;19.33;33.87
68508;BME280;55510;49.560;19.090;2023-03-20T12:01:48;96442.69;;;18.78;34.75
68508;BME280;55510;49.560;19.090;2023-03-20T12:04:50;96442.59;;;18.11;36.04
68508;BME280;55510;49.560;19.090;2023-03-20T12:07:52;96440.16;;;17.47;37.71
68508;BME280;55510;49.560;19.090;2023-03-20T12:11:29;96438.72;;;17.01;38.74
68508;BME280;55510;49.560;19.090;2023-03-20T12:17:56;96433.34;;;17.31;39.50
68508;BME280;55510;49.560;19.090;2023-03-20T12:21:09;96426.75;;;16.88;39.21
68508;BME280;55510;49.560;19.090;2023-03-20T12:27:36;96427.38;;;16.05;41.54
68508;BME280;55510;49.560;19.090;2023-03-20T12:31:13;96426.16;;;15.77;42.54
68508;BME280;55510;49.560;19.090;2023-03-20T12:34:26;96428.38;;;15.54;43.03
68508;BME280;55510;49.560;19.090;2023-03-20T12:37:31;96423.63;;;15.35;43.75
68508;BME280;55510;49.560;19.090;2023-03-20T12:40:43;96423.34;;;15.32;44.75
68508;BME280;55510;49.560;19.090;2023-03-20T12:47:17;96417.34;;;15.66;44.89
68508;BME280;55510;49.560;19.090;2023-03-20T13:00:15;96413.44;;;17.32;41.72
68508;BME280;55510;49.560;19.090;2023-03-20T13:06:53;96401.41;;;16.94;41.58
68508;BME280;55510;49.560;19.090;2023-03-20T13:10:11;96411.09;;;16.66;42.10
68508;BME280;55510;49.560;19.090;2023-03-20T13:20:28;96419.69;;;15.78;44.53
68508;BME280;55510;49.560;19.090;2023-03-20T13:23:38;96414.19;;;15.54;45.46
68508;BME280;55510;49.560;19.090;2023-03-20T13:30:02;96413.72;;;15.31;45.95
68508;BME280;55510;49.560;19.090;2023-03-20T13:33:31;96422.06;;;15.19;45.94
68508;BME280;55510;49.560;19.090;2023-03-20T13:53:05;96419.06;;;15.31;47.46
68508;BME280;55510;49.560;19.090;2023-03-20T14:09:33;96414.91;;;14.83;50.30
68508;BME280;55510;49.560;19.090;2023-03-20T14:12:34;96416.50;;;14.89;49.53
68508;BME280;55510;49.560;19.090;2023-03-20T14:15:37;96421.06;;;14.89;48.69
68508;BME280;55510;49.560;19.090;2023-03-20T14:18:38;96424.81;;;14.93;49.81
68508;BME280;55510;49.560;19.090;2023-03-20T14:21:44;96415.16;;;14.92;49.80
68508;BME280;55510;49.560;19.090;2023-03-20T14:25:16;96421.84;;;14.89;49.20
68508;BME280;55510;49.560;19.090;2023-03-20T14:34:45;96416.22;;;14.65;49.43
68508;BME280;55510;49.560;19.090;2023-03-20T14:38:06;96418.63;;;14.46;49.67
68508;BME280;55510;49.560;19.090;2023-03-20T14:44:37;96425.59;;;14.31;51.08
68508;BME280;55510;49.560;19.090;2023-03-20T14:48:08;96428.00;;;14.38;52.13
68508;BME280;55510;49.560;19.090;2023-03-20T14:51:19;96421.31;;;14.51;51.49
68508;BME280;55510;49.560;19.090;2023-03-20T14:57:31;96424.22;;;15.12;50.27
68508;BME280;55510;49.560;19.090;2023-03-20T15:00:35;96419.63;;;15.22;49.55
68508;BME280;55510;49.560;19.090;2023-03-20T15:04:06;96417.22;;;15.31;49.47
68508;BME280;55510;49.560;19.090;2023-03-20T15:07:16;96418.59;;;15.18;48.43
68508;BME280;55510;49.560;19.090;2023-03-20T15:10:24;96416.78;;;14.88;48.96
68508;BME280;55510;49.560;19.090;2023-03-20T15:13:26;96425.59;;;14.62;49.56
68508;BME280;55510;49.560;19.090;2023-03-20T15:16:33;96433.38;;;14.38;50.53
68508;BME280;55510;49.560;19.090;2023-03-20T15:19:38;96424.50;;;14.22;51.02
68508;BME280;55510;49.560;19.090;2023-03-20T15:22:59;96428.75;;;13.97;51.32
68508;BME280;55510;49.560;19.090;2023-03-20T15:26:00;96422.81;;;13.80;51.36
68508;BME280;55510;49.560;19.090;2023-03-20T15:29:07;96428.38;;;13.62;52.24
68508;BME280;55510;49.560;19.090;2023-03-20T15:32:10;96428.56;;;13.45;53.61
68508;BME280;55510;49.560;19.090;2023-03-20T15:35:22;96426.31;;;13.27;53.78
68508;BME280;55510;49.560;19.090;2023-03-20T15:38:32;96424.38;;;13.12;53.88
68508;BME280;55510;49.560;19.090;2023-03-20T15:41:36;96429.88;;;12.95;53.91
68508;BME280;55510;49.560;19.090;2023-03-20T15:44:39;96428.22;;;12.83;54.24
68508;BME280;55510;49.560;19.090;2023-03-20T15:47:41;96433.97;;;12.70;55.04
68508;BME280;55510;49.560;19.090;2023-03-20T15:50:45;96437.66;;;12.64;55.47
68508;BME280;55510;49.560;19.090;2023-03-20T15:53:48;96428.47;;;12.49;55.72
68508;BME280;55510;49.560;19.090;2023-03-20T15:56:50;96429.19;;;12.39;56.50
68508;BME280;55510;49.560;19.090;2023-03-20T15:59:52;96435.78;;;12.31;56.86
68508;BME280;55510;49.560;19.090;2023-03-20T16:02:52;96430.69;;;12.25;57.44
68508;BME280;55510;49.560;19.090;2023-03-20T16:05:58;96437.28;;;12.17;57.80
68508;BME280;55510;49.560;19.090;2023-03-20T16:09:04;96434.78;;;12.10;58.48
68508;BME280;55510;49.560;19.090;2023-03-20T16:12:14;96434.19;;;12.03;58.96
68508;BME280;55510;49.560;19.090;2023-03-20T16:15:17;96446.09;;;11.95;59.23
68508;BME280;55510;49.560;19.090;2023-03-20T16:18:19;96445.47;;;11.88;59.50
68508;BME280;55510;49.560;19.090;2023-03-20T16:24:28;96453.31;;;11.72;60.25
68508;BME280;55510;49.560;19.090;2023-03-20T16:27:35;96446.53;;;11.65;60.43
68508;BME280;55510;49.560;19.090;2023-03-20T16:30:36;96452.63;;;11.60;60.56
68508;BME280;55510;49.560;19.090;2023-03-20T16:33:38;96458.97;;;11.54;60.98
68508;BME280;55510;49.560;19.090;2023-03-20T16:36:39;96456.47;;;11.47;61.52
68508;BME280;55510;49.560;19.090;2023-03-20T16:39:40;96456.34;;;11.37;62.09
68508;BME280;55510;49.560;19.090;2023-03-20T16:42:42;96465.56;;;11.29;62.50
68508;BME280;55510;49.560;19.090;2023-03-20T16:45:45;96461.22;;;11.23;63.17
68508;BME280;55510;49.560;19.090;2023-03-20T16:48:57;96462.69;;;11.13;63.29
68508;BME280;55510;49.560;19.090;2023-03-20T16:52:14;96460.47;;;11.05;63.51
68508;BME280;55510;49.560;19.090;2023-03-20T16:55:36;96462.47;;;10.98;63.88
68508;BME280;55510;49.560;19.090;2023-03-20T16:58:43;96460.47;;;10.88;64.34
68508;BME280;55510;49.560;19.090;2023-03-20T17:01:46;96458.69;;;10.77;64.85
68508;BME280;55510;49.560;19.090;2023-03-20T17:04:48;96455.63;;;10.68;65.57
68508;BME280;55510;49.560;19.090;2023-03-20T17:07:50;96458.13;;;10.57;65.85
68508;BME280;55510;49.560;19.090;2023-03-20T17:11:03;96464.41;;;10.51;65.89
68508;BME280;55510;49.560;19.090;2023-03-20T17:14:04;96461.91;;;10.44;66.22
68508;BME280;55510;49.560;19.090;2023-03-20T17:17:26;96462.03;;;10.38;66.63
68508;BME280;55510;49.560;19.090;2023-03-20T17:20:27;96461.47;;;10.36;66.88
68508;BME280;55510;49.560;19.090;2023-03-20T17:23:28;96464.75;;;10.26;67.48
68508;BME280;55510;49.560;19.090;2023-03-20T17:26:30;96462.81;;;10.21;68.04
68508;BME280;55510;49.560;19.090;2023-03-20T17:29:31;96464.41;;;10.05;68.56
68508;BME280;55510;49.560;19.090;2023-03-20T17:32:31;96457.25;;;9.94;69.68
68508;BME280;55510;49.560;19.090;2023-03-20T17:35:33;96468.13;;;9.92;69.87
68508;BME280;55510;49.560;19.090;2023-03-20T17:38:36;96478.81;;;9.80;70.13
68508;BME280;55510;49.560;19.090;2023-03-20T17:41:37;96479.19;;;9.72;70.72
68508;BME280;55510;49.560;19.090;2023-03-20T17:44:37;96480.81;;;9.61;71.01
68508;BME280;55510;49.560;19.090;2023-03-20T17:47:39;96477.97;;;9.51;71.73
68508;BME280;55510;49.560;19.090;2023-03-20T17:50:42;96476.13;;;9.39;72.16
68508;BME280;55510;49.560;19.090;2023-03-20T17:53:43;96477.28;;;9.32;72.21
68508;BME280;55510;49.560;19.090;2023-03-20T17:56:43;96483.75;;;9.24;72.84
68508;BME280;55510;49.560;19.090;2023-03-20T17:59:44;96476.72;;;9.18;73.20
68508;BME280;55510;49.560;19.090;2023-03-20T18:02:45;96476.03;;;9.10;73.45
68508;BME280;55510;49.560;19.090;2023-03-20T18:05:48;96468.19;;;9.04;73.79
68508;BME280;55510;49.560;19.090;2023-03-20T18:08:49;96474.19;;;8.99;73.97
68508;BME280;55510;49.560;19.090;2023-03-20T18:11:50;96472.47;;;8.93;74.04
68508;BME280;55510;49.560;19.090;2023-03-20T18:14:50;96474.44;;;8.85;74.53
68508;BME280;55510;49.560;19.090;2023-03-20T18:17:51;96469.44;;;8.77;74.49
68508;BME280;55510;49.560;19.090;2023-03-20T18:20:52;96470.94;;;8.73;74.85
68508;BME280;55510;49.560;19.090;2023-03-20T18:23:55;96475.09;;;8.69;75.14
68508;BME280;55510;49.560;19.090;2023-03-20T18:26:56;96471.53;;;8.63;75.40
68508;BME280;55510;49.560;19.090;2023-03-20T18:29:56;96480.16;;;8.59;75.63
68508;BME280;55510;49.560;19.090;2023-03-20T18:32:58;96481.41;;;8.56;75.76
68508;BME280;55510;49.560;19.090;2023-03-20T18:35:59;96478.63;;;8.51;75.96
68508;BME280;55510;49.560;19.090;2023-03-20T18:38:59;96484.38;;;8.48;76.11
68508;BME280;55510;49.560;19.090;2023-03-20T18:42:00;96485.88;;;8.44;76.49
68508;BME280;55510;49.560;19.090;2023-03-20T18:45:02;96481.69;;;8.36;76.50
68508;BME280;55510;49.560;19.090;2023-03-20T18:48:03;96478.13;;;8.30;76.75
68508;BME280;55510;49.560;19.090;2023-03-20T18:51:04;96483.50;;;8.23;77.50
68508;BME280;55510;49.560;19.090;2023-03-20T18:54:05;96480.13;;;8.16;77.82
68508;BME280;55510;49.560;19.090;2023-03-20T18:57:11;96485.31;;;8.11;78.33
68508;BME280;55510;49.560;19.090;2023-03-20T19:03:23;96496.69;;;8.00;78.78
68508;BME280;55510;49.560;19.090;2023-03-20T19:06:24;96501.22;;;7.92;79.01
68508;BME280;55510;49.560;19.090;2023-03-20T19:09:25;96488.88;;;7.86;79.24
68508;BME280;55510;49.560;19.090;2023-03-20T19:12:26;96496.69;;;7.81;79.50
68508;BME280;55510;49.560;19.090;2023-03-20T19:15:29;96506.13;;;7.77;79.80
68508;BME280;55510;49.560;19.090;2023-03-20T19:18:30;96498.63;;;7.74;80.22
68508;BME280;55510;49.560;19.090;2023-03-20T19:21:32;96501.91;;;7.69;80.48
68508;BME280;55510;49.560;19.090;2023-03-20T19:24:35;96502.16;;;7.67;80.99
68508;BME280;55510;49.560;19.090;2023-03-20T19:27:36;96498.94;;;7.65;81.26
68508;BME280;55510;49.560;19.090;2023-03-20T19:30:38;96496.47;;;7.64;81.01
68508;BME280;55510;49.560;19.090;2023-03-20T19:33:39;96497.75;;;7.61;81.23
68508;BME280;55510;49.560;19.090;2023-03-20T19:36:41;96496.59;;;7.57;81.56
68508;BME280;55510;49.560;19.090;2023-03-20T19:39:41;96494.78;;;7.51;81.69
68508;BME280;55510;49.560;19.090;2023-03-20T19:42:42;96493.03;;;7.45;81.88
68508;BME280;55510;49.560;19.090;2023-03-20T19:45:43;96489.22;;;7.40;82.05
68508;BME280;55510;49.560;19.090;2023-03-20T19:48:45;96492.75;;;7.34;82.19
68508;BME280;55510;49.560;19.090;2023-03-20T19:51:47;96495.69;;;7.26;82.30
68508;BME280;55510;49.560;19.090;2023-03-20T19:54:48;96504.66;;;7.25;82.82
68508;BME280;55510;49.560;19.090;2023-03-20T19:57:48;96497.16;;;7.22;82.80
68508;BME280;55510;49.560;19.090;2023-03-20T20:00:50;96494.72;;;7.20;82.88
68508;BME280;55510;49.560;19.090;2023-03-20T20:03:51;96490.44;;;7.19;82.57
68508;BME280;55510;49.560;19.090;2023-03-20T20:06:52;96499.78;;;7.22;82.65
68508;BME280;55510;49.560;19.090;2023-03-20T20:09:55;96491.63;;;7.23;82.65
68508;BME280;55510;49.560;19.090;2023-03-20T20:12:56;96494.06;;;7.25;82.64
68508;BME280;55510;49.560;19.090;2023-03-20T20:15:57;96489.34;;;7.27;82.35
68508;BME280;55510;49.560;19.090;2023-03-20T20:18:58;96492.78;;;7.28;82.47
68508;BME280;55510;49.560;19.090;2023-03-20T20:21:59;96486.28;;;7.30;82.35
68508;BME280;55510;49.560;19.090;2023-03-20T20:25:00;96491.34;;;7.32;82.73
68508;BME280;55510;49.560;19.090;2023-03-20T20:28:00;96486.84;;;7.32;82.56
68508;BME280;55510;49.560;19.090;2023-03-20T20:31:04;96500.69;;;7.34;82.51
68508;BME280;55510;49.560;19.090;2023-03-20T20:34:04;96494.00;;;7.32;82.40
68508;BME280;55510;49.560;19.090;2023-03-20T20:37:05;96497.69;;;7.31;82.48
68508;BME280;55510;49.560;19.090;2023-03-20T20:40:10;96496.06;;;7.30;82.76
68508;BME280;55510;49.560;19.090;2023-03-20T20:43:11;96496.28;;;7.28;82.86
68508;BME280;55510;49.560;19.090;2023-03-20T20:46:12;96493.03;;;7.26;83.26
68508;BME280;55510;49.560;19.090;2023-03-20T20:49:16;96495.69;;;7.26;82.93
68508;BME280;55510;49.560;19.090;2023-03-20T20:52:16;96491.41;;;7.25;83.13
68508;BME280;55510;49.560;19.090;2023-03-20T20:55:19;96493.47;;;7.23;83.18
68508;BME280;55510;49.560;19.090;2023-03-20T20:58:20;96491.84;;;7.22;83.04
68508;BME280;55510;49.560;19.090;2023-03-20T21:01:22;96488.81;;;7.18;83.04
68508;BME280;55510;49.560;19.090;2023-03-20T21:04:22;96490.09;;;7.16;83.08
68508;BME280;55510;49.560;19.090;2023-03-20T21:07:24;96497.44;;;7.14;83.25
68508;BME280;55510;49.560;19.090;2023-03-20T21:10:25;96499.94;;;7.08;83.25
68508;BME280;55510;49.560;19.090;2023-03-20T21:13:26;96496.91;;;7.05;83.45
68508;BME280;55510;49.560;19.090;2023-03-20T21:16:26;96502.84;;;7.00;83.64
68508;BME280;55510;49.560;19.090;2023-03-20T21:19:35;96499.00;;;6.96;83.98
68508;BME280;55510;49.560;19.090;2023-03-20T21:22:36;96500.84;;;6.95;84.03
68508;BME280;55510;49.560;19.090;2023-03-20T21:25:39;96497.38;;;6.95;83.99
68508;BME280;55510;49.560;19.090;2023-03-20T21:28:40;96498.84;;;6.91;84.01
68508;BME280;55510;49.560;19.090;2023-03-20T21:31:41;96500.91;;;6.89;83.70
68508;BME280;55510;49.560;19.090;2023-03-20T21:34:42;96505.75;;;6.92;83.48
68508;BME280;55510;49.560;19.090;2023-03-20T21:37:43;96497.81;;;6.92;83.19
68508;BME280;55510;49.560;19.090;2023-03-20T21:40:44;96497.38;;;6.95;83.22
68508;BME280;55510;49.560;19.090;2023-03-20T21:43:45;96502.69;;;6.95;83.10
68508;BME280;55510;49.560;19.090;2023-03-20T21:46:46;96503.28;;;6.97;83.29
68508;BME280;55510;49.560;19.090;2023-03-20T21:49:48;96510.63;;;6.95;83.19
68508;BME280;55510;49.560;19.090;2023-03-20T21:52:48;96512.66;;;6.93;83.13
68508;BME280;55510;49.560;19.090;2023-03-20T21:55:49;96521.63;;;6.92;83.30
68508;BME280;55510;49.560;19.090;2023-03-20T21:58:49;96513.34;;;6.88;83.58
68508;BME280;55510;49.560;19.090;2023-03-20T22:01:50;96514.38;;;6.87;83.87
68508;BME280;55510;49.560;19.090;2023-03-20T22:04:52;96518.63;;;6.88;84.10
68508;BME280;55510;49.560;19.090;2023-03-20T22:07:54;96524.13;;;6.87;84.16
68508;BME280;55510;49.560;19.090;2023-03-20T22:10:54;96527.78;;;6.86;84.33
68508;BME280;55510;49.560;19.090;2023-03-20T22:13:55;96523.53;;;6.85;84.60
68508;BME280;55510;49.560;19.090;2023-03-20T22:16:56;96512.75;;;6.86;84.53
68508;BME280;55510;49.560;19.090;2023-03-20T22:19:56;96513.53;;;6.87;84.62
68508;BME280;55510;49.560;19.090;2023-03-20T22:22:57;96502.16;;;6.86;84.97
68508;BME280;55510;49.560;19.090;2023-03-20T22:26:00;96503.97;;;6.86;84.73
68508;BME280;55510;49.560;19.090;2023-03-20T22:29:01;96502.38;;;6.85;84.74
68508;BME280;55510;49.560;19.090;2023-03-20T22:32:03;96500.16;;;6.81;84.68
68508;BME280;55510;49.560;19.090;2023-03-20T22:35:04;96493.69;;;6.77;84.57
68508;BME280;55510;49.560;19.090;2023-03-20T22:38:05;96489.41;;;6.76;84.41
68508;BME280;55510;49.560;19.090;2023-03-20T22:41:06;96481.53;;;6.70;84.67
68508;BME280;55510;49.560;19.090;2023-03-20T22:44:09;96481.97;;;6.66;84.99
68508;BME280;55510;49.560;19.090;2023-03-20T22:51:07;96478.78;;;6.58;85.36
68508;BME280;55510;49.560;19.090;2023-03-20T22:54:08;96473.91;;;6.55;85.35
68508;BME280;55510;49.560;19.090;2023-03-20T22:57:09;96481.69;;;6.49;85.60
68508;BME280;55510;49.560;19.090;2023-03-20T23:00:10;96484.16;;;6.44;85.82
